Detalii statie PETRESTI PETRESTI [0000197D]

Toti senzorii

Date Temperatura solului [C]Precipitatii [mm]Voltaj baterie [mV]Leaf Wetness [Min]HC Air temperature [C]HC Relative humidity [%]Punctul de roua [C]
medieminmaxsumaultimatimpmedieminmaxmediemediemin
2017-12-10 22:00:00 1.3 1.2 1.5 0 6816 -1.49 -1.62 -1.33 0 0 0
2017-12-10 23:00:00 1.3 1.3 1.4 0 6816 -1.06 -1.52 -0.37 0 0 0
2017-12-11 00:00:00 1.3 1.2 1.4 0 6806 0.24 -0.31 0.68 0 0 0
2017-12-11 01:00:00 1.3 1.2 1.5 0 6806 0.75 0.63 0.9 0 0 0
2017-12-11 02:00:00 1.2 1.2 1.4 0 6796 1.05 0.78 1.25 0 0 0
2017-12-11 03:00:00 1.2 1.1 1.3 0 6796 1.39 1.03 1.64 0 0 0
2017-12-11 04:00:00 1.2 1.2 1.3 0 6796 0.74 0.51 1.25 0 0 0
2017-12-11 05:00:00 1.2 1.2 1.3 0 6776 0.86 0.74 1.03 0 0 0
2017-12-11 06:00:00 1.2 1.1 1.4 0 6766 0.97 0.86 1.1 0 0 0
2017-12-11 07:00:00 1.2 1.1 1.3 0 6776 0.69 0.18 1.1 0 0 0
2017-12-11 08:00:00 1.2 1.1 1.4 0 6748 0.18 0.13 0.31 0 0 0
2017-12-11 09:00:00 1.2 1.1 1.3 0 6738 0.47 0.33 0.57 0 0 0
2017-12-11 10:00:00 1.2 1.2 1.3 0 6748 0.59 0.49 0.71 0 0 0
2017-12-11 11:00:00 1.3 1.2 1.4 0.2 6766 1.14 0.79 1.49 0 0 0
2017-12-11 12:00:00 1.4 1.3 1.6 0.4 6806 2.56 1.71 3.16 0 0 0
2017-12-11 13:00:00 1.6 1.5 1.8 0 6834 3.43 3.15 3.64 0 0 0
2017-12-11 14:00:00 2 1.9 2.2 0 6816 3.98 3.33 4.81 0 0 0
2017-12-11 15:00:00 2.3 2.2 2.5 0 6806 5.14 4.56 5.56 0 0 0
2017-12-11 16:00:00 2.5 2.4 2.9 0 6756 6.4 5.98 7.29 0 0 0
2017-12-11 17:00:00 2.8 2.8 3 0 6738 8.42 7.56 9.11 0 0 0
2017-12-11 18:00:00 3 3 3.1 0 6738 9.14 9.03 9.24 0 0 0
2017-12-11 19:00:00 3.2 3.1 3.3 0 6728 9.27 9.16 9.44 0 0 0
2017-12-11 20:00:00 3.3 3.3 3.5 0 6718 9.39 9.16 9.71 0 0 0
2017-12-11 21:00:00 3.4 3.3 3.6 0 6738 9.71 9.6 9.83 0 0 0
2017-12-11 22:00:00 3.6 3.5 3.8 0 6728 9.94 9.85 10.08 0 0 0
2017-12-11 23:00:00 3.7 3.6 3.9 0 6718 9.81 9.62 10 0 0 0
2017-12-12 00:00:00 3.7 3.7 3.9 0 6738 10.04 9.87 10.21 0 0 0
2017-12-12 01:00:00 3.7 3.7 3.9 0 6718 9.71 9.63 9.82 0 0 0
2017-12-12 02:00:00 3.8 3.7 3.9 0 6728 9.53 9.19 9.75 0 0 0
2017-12-12 03:00:00 3.7 3.7 3.9 0 6718 8.39 7.6 9.09 0 0 0
2017-12-12 04:00:00 3.7 3.7 3.9 0 6718 7.92 7.67 8.5 0 0 0
2017-12-12 05:00:00 3.7 3.5 3.8 0 6728 8.58 8.28 8.9 0 0 0
2017-12-12 06:00:00 3.6 3.5 3.8 0 6728 9.21 8.97 9.47 0 0 0
2017-12-12 07:00:00 3.6 3.5 3.7 0 6728 8.94 8.49 9.27 0 0 0
2017-12-12 08:00:00 3.6 3.6 3.7 0 6728 10.43 9.67 10.84 0 0 0
2017-12-12 09:00:00 3.6 3.5 3.8 0 6728 10.77 10.46 11.5 0 0 0
2017-12-12 10:00:00 3.8 3.7 4 0 6748 11.88 11.43 12.32 0 0 0
2017-12-12 11:00:00 4 3.7 4.2 0 6776 12.97 12.56 13.37 0 0 0
2017-12-12 12:00:00 4.4 4.2 4.6 0 6816 13.56 13.32 13.91 0 0 0
2017-12-12 13:00:00 4.7 4.6 5 0 6922 14.49 13.99 15.15 0 0 0
2017-12-12 14:00:00 5.2 5 5.4 0 6894 15.04 14.88 15.2 28.44 3.9 0
2017-12-12 15:00:00 5.6 5.4 5.8 0 6904 14.89 14.65 15.12 20.61 0
2017-12-12 16:00:00 5.9 5.8 6.1 0 6834 14.41 13.99 14.74 94.08 13.2 8
2017-12-12 17:00:00 6.1 6 6.2 0 6786 13.96 13.68 14.36 91.53 12.3 7.6
2017-12-12 18:00:00 6.1 6 6.3 0 6748 13.55 13.14 14.18 85.5 10.8 7.6
2017-12-12 19:00:00 6.3 6.2 6.4 0 6748 13.17 12.89 13.72 99.06 12.9 11.3
2017-12-12 20:00:00 6.3 6.2 6.4 0 6728 12.34 11.97 12.93 99.83 12.2 11.9
2017-12-12 21:00:00 6.3 6.2 6.4 0 6718 12.11 11.89 12.41 100 12 11.8